PWSweather.com
Personal Weather Stations
Station Observations
IW2DCW
Centro Citta', VimercateIT 20871

Centro Citta'VimercateIT 20871

Lat: 45.614405, Lon: 9.368358

Elevation: 610

Station Type: Davis Vantage Pro 2

Latest ConditionsUpdated 4:59:00 AM GMT+01:01 Wednesday, Aug 21, 2019
Currently Today's Max Today's Min Today's Average
Temperature 69.4°F20.8°C 70.8°F21.6°C 69.2°F20.7°C 70.0°F21.1°C
Dew Point 62.2°F16.8°C 65.7°F18.7°C 62.1°F16.7°C 64.0°F17.8°C
Winds 6.0 mph NNE9.7 kmh NNE 9.0 mph -14.5 kmh - - 4.8 mph 7.7 kmh
Wind Gusts 12.0 mph19.3 kmh 13.0 mph20.9 kmh - -
Humidity 78% 86% 78% 81%
Pressure 29.94 in1013.9 mb 29.94 in1013.9 mb 29.93 in1013.5 mb -
Hour Temp Dew Point Humidity Winds Wind Gusts Pressure Precip Precip Rate Daily Precip Total
04:59 AM 69.4°F20.8°C 62.2°F16.8°C 78% 6.0 mph NNE9.7 kmh NNE 12.0 mph19.3 kmh 29.94 in1013.9 mb 0.00 in0.0 mm 0.00 in0.0 mm 0.00 in0.0 mm
04:58 AM 69.4°F20.8°C 62.2°F16.8°C 78% 7.0 mph NNE11.3 kmh NNE 10.0 mph16.1 kmh 29.94 in1013.9 mb 0.00 in0.0 mm 0.00 in0.0 mm 0.00 in0.0 mm
04:57 AM 69.3°F20.7°C 62.2°F16.8°C 78% 7.0 mph NNE11.3 kmh NNE 12.0 mph19.3 kmh 29.94 in1013.9 mb 0.00 in0.0 mm 0.00 in0.0 mm 0.00 in0.0 mm
04:56 AM 69.3°F20.7°C 62.1°F16.7°C 78% 7.0 mph NNE11.3 kmh NNE 12.0 mph19.3 kmh 29.94 in1013.9 mb 0.00 in0.0 mm 0.00 in0.0 mm 0.00 in0.0 mm
04:55 AM 69.3°F20.7°C 62.1°F16.7°C 78% 7.0 mph N11.3 kmh N 11.0 mph17.7 kmh 29.94 in1013.9 mb 0.00 in0.0 mm 0.00 in0.0 mm 0.00 in0.0 mm
04:54 AM 69.3°F20.7°C 62.1°F16.7°C 78% 8.0 mph NNE12.9 kmh NNE 11.0 mph17.7 kmh 29.94 in1013.9 mb 0.00 in0.0 mm 0.00 in0.0 mm 0.00 in0.0 mm
04:53 AM 69.3°F20.7°C 62.1°F16.7°C 78% 7.0 mph NNE11.3 kmh NNE 9.0 mph14.5 kmh 29.94 in1013.9 mb 0.00 in0.0 mm 0.00 in0.0 mm 0.00 in0.0 mm
04:52 AM 69.3°F20.7°C 62.1°F16.7°C 78% 5.0 mph N8.0 kmh N 11.0 mph17.7 kmh 29.94 in1013.9 mb 0.00 in0.0 mm 0.00 in0.0 mm 0.00 in0.0 mm
04:51 AM 69.3°F20.7°C 62.1°F16.7°C 78% 7.0 mph NNE11.3 kmh NNE 11.0 mph17.7 kmh 29.94 in1013.9 mb 0.00 in0.0 mm 0.00 in0.0 mm 0.00 in0.0 mm
04:50 AM 69.3°F20.7°C 62.1°F16.7°C 78% 6.0 mph NNE9.7 kmh NNE 9.0 mph14.5 kmh 29.94 in1013.9 mb 0.00 in0.0 mm 0.00 in0.0 mm 0.00 in0.0 mm
04:49 AM 69.3°F20.7°C 62.1°F16.7°C 78% 5.0 mph NNE8.0 kmh NNE 9.0 mph14.5 kmh 29.94 in1013.9 mb 0.00 in0.0 mm 0.00 in0.0 mm 0.00 in0.0 mm
04:48 AM 69.3°F20.7°C 62.1°F16.7°C 78% 6.0 mph NNE9.7 kmh NNE 9.0 mph14.5 kmh 29.94 in1013.9 mb 0.00 in0.0 mm 0.00 in0.0 mm 0.00 in0.0 mm
04:47 AM 69.3°F20.7°C 62.1°F16.7°C 78% 7.0 mph NNE11.3 kmh NNE 10.0 mph16.1 kmh 29.94 in1013.9 mb 0.00 in0.0 mm 0.00 in0.0 mm 0.00 in0.0 mm
04:46 AM 69.3°F20.7°C 62.1°F16.7°C 78% 7.0 mph N11.3 kmh N 10.0 mph16.1 kmh 29.94 in1013.9 mb 0.00 in0.0 mm 0.00 in0.0 mm 0.00 in0.0 mm
04:45 AM 69.3°F20.7°C 62.1°F16.7°C 78% 5.0 mph NNE8.0 kmh NNE 8.0 mph12.9 kmh 29.94 in1013.9 mb 0.00 in0.0 mm 0.00 in0.0 mm 0.00 in0.0 mm
04:44 AM 69.3°F20.7°C 62.1°F16.7°C 78% 5.0 mph N8.0 kmh N 9.0 mph14.5 kmh 29.94 in1013.9 mb 0.00 in0.0 mm 0.00 in0.0 mm 0.00 in0.0 mm
04:43 AM 69.3°F20.7°C 62.1°F16.7°C 78% 6.0 mph NNE9.7 kmh NNE 9.0 mph14.5 kmh 29.94 in1013.9 mb 0.00 in0.0 mm 0.00 in0.0 mm 0.00 in0.0 mm
04:42 AM 69.3°F20.7°C 62.1°F16.7°C 78% 6.0 mph NNE9.7 kmh NNE 10.0 mph16.1 kmh 29.94 in1013.9 mb 0.00 in0.0 mm 0.00 in0.0 mm 0.00 in0.0 mm
04:41 AM 69.3°F20.7°C 62.3°F16.8°C 78% 7.0 mph N11.3 kmh N 10.0 mph16.1 kmh 29.94 in1013.9 mb 0.00 in0.0 mm 0.00 in0.0 mm 0.00 in0.0 mm
04:40 AM 69.3°F20.7°C 62.3°F16.8°C 78% 6.0 mph NNE9.7 kmh NNE 10.0 mph16.1 kmh 29.94 in1013.9 mb 0.00 in0.0 mm 0.00 in0.0 mm 0.00 in0.0 mm
04:39 AM 69.3°F20.7°C 62.4°F16.9°C 79% 6.0 mph NNE9.7 kmh NNE 8.0 mph12.9 kmh 29.94 in1013.9 mb 0.00 in0.0 mm 0.00 in0.0 mm 0.00 in0.0 mm
04:38 AM 69.3°F20.7°C 62.5°F16.9°C 79% 5.0 mph N8.0 kmh N 9.0 mph14.5 kmh 29.94 in1013.9 mb 0.00 in0.0 mm 0.00 in0.0 mm 0.00 in0.0 mm
04:37 AM 69.2°F20.7°C 62.4°F16.9°C 79% 5.0 mph N8.0 kmh N 9.0 mph14.5 kmh 29.94 in1013.9 mb 0.00 in0.0 mm 0.00 in0.0 mm 0.00 in0.0 mm
04:36 AM 69.2°F20.7°C 62.4°F16.9°C 79% 7.0 mph NNE11.3 kmh NNE 9.0 mph14.5 kmh 29.94 in1013.9 mb 0.00 in0.0 mm 0.00 in0.0 mm 0.00 in0.0 mm
04:35 AM 69.2°F20.7°C 62.4°F16.9°C 79% 4.0 mph N6.4 kmh N 9.0 mph14.5 kmh 29.94 in1013.9 mb 0.00 in0.0 mm 0.00 in0.0 mm 0.00 in0.0 mm
04:34 AM 69.2°F20.7°C 62.4°F16.9°C 79% 4.0 mph N6.4 kmh N 10.0 mph16.1 kmh 29.94 in1013.9 mb 0.00 in0.0 mm 0.00 in0.0 mm 0.00 in0.0 mm
04:33 AM 69.2°F20.7°C 62.4°F16.9°C 79% 6.0 mph NNE9.7 kmh NNE 10.0 mph16.1 kmh 29.94 in1013.9 mb 0.00 in0.0 mm 0.00 in0.0 mm 0.00 in0.0 mm
04:32 AM 69.2°F20.7°C 62.4°F16.9°C 79% 5.0 mph N8.0 kmh N 9.0 mph14.5 kmh 29.94 in1013.9 mb 0.00 in0.0 mm 0.00 in0.0 mm 0.00 in0.0 mm
04:31 AM 69.2°F20.7°C 62.4°F16.9°C 79% 7.0 mph NNE11.3 kmh NNE 9.0 mph14.5 kmh 29.94 in1013.9 mb 0.00 in0.0 mm 0.00 in0.0 mm 0.00 in0.0 mm
04:30 AM 69.2°F20.7°C 62.4°F16.9°C 79% 4.0 mph N6.4 kmh N 8.0 mph12.9 kmh 29.94 in1013.9 mb 0.00 in0.0 mm 0.00 in0.0 mm 0.00 in0.0 mm
04:29 AM 69.2°F20.7°C 62.4°F16.9°C 79% 5.0 mph N8.0 kmh N 9.0 mph14.5 kmh 29.94 in1013.9 mb 0.00 in0.0 mm 0.00 in0.0 mm 0.00 in0.0 mm
04:28 AM 69.3°F20.7°C 62.5°F16.9°C 79% 6.0 mph NNE9.7 kmh NNE 9.0 mph14.5 kmh 29.94 in1013.9 mb 0.00 in0.0 mm 0.00 in0.0 mm 0.00 in0.0 mm
04:27 AM 69.3°F20.7°C 62.5°F16.9°C 79% 4.0 mph N6.4 kmh N 8.0 mph12.9 kmh 29.94 in1013.9 mb 0.00 in0.0 mm 0.00 in0.0 mm 0.00 in0.0 mm
04:26 AM 69.3°F20.7°C 62.5°F16.9°C 79% 5.0 mph N8.0 kmh N 9.0 mph14.5 kmh 29.94 in1013.9 mb 0.00 in0.0 mm 0.00 in0.0 mm 0.00 in0.0 mm
04:25 AM 69.3°F20.7°C 62.5°F16.9°C 79% 7.0 mph N11.3 kmh N 9.0 mph14.5 kmh 29.94 in1013.9 mb 0.00 in0.0 mm 0.00 in0.0 mm 0.00 in0.0 mm
04:24 AM 69.3°F20.7°C 62.5°F16.9°C 79% 5.0 mph N8.0 kmh N 8.0 mph12.9 kmh 29.94 in1013.9 mb 0.00 in0.0 mm 0.00 in0.0 mm 0.00 in0.0 mm
04:23 AM 69.4°F20.8°C 62.6°F17.0°C 79% 5.0 mph NNE8.0 kmh NNE 8.0 mph12.9 kmh 29.94 in1013.9 mb 0.00 in0.0 mm 0.00 in0.0 mm 0.00 in0.0 mm
04:22 AM 69.4°F20.8°C 62.6°F17.0°C 79% 6.0 mph N9.7 kmh N 9.0 mph14.5 kmh 29.94 in1013.9 mb 0.00 in0.0 mm 0.00 in0.0 mm 0.00 in0.0 mm
04:21 AM 69.4°F20.8°C 62.6°F17.0°C 79% 6.0 mph NNE9.7 kmh NNE 9.0 mph14.5 kmh 29.94 in1013.9 mb 0.00 in0.0 mm 0.00 in0.0 mm 0.00 in0.0 mm
04:20 AM 69.5°F20.8°C 62.7°F17.1°C 79% 6.0 mph N9.7 kmh N 9.0 mph14.5 kmh 29.94 in1013.9 mb 0.00 in0.0 mm 0.00 in0.0 mm 0.00 in0.0 mm
04:19 AM 69.5°F20.8°C 62.6°F17.0°C 79% 5.0 mph N8.0 kmh N 8.0 mph12.9 kmh 29.94 in1013.9 mb 0.00 in0.0 mm 0.00 in0.0 mm 0.00 in0.0 mm
04:18 AM 69.5°F20.8°C 62.5°F16.9°C 78% 5.0 mph N8.0 kmh N 8.0 mph12.9 kmh 29.94 in1013.9 mb 0.00 in0.0 mm 0.00 in0.0 mm 0.00 in0.0 mm
04:17 AM 69.5°F20.8°C 62.7°F17.1°C 79% 5.0 mph N8.0 kmh N 9.0 mph14.5 kmh 29.94 in1013.9 mb 0.00 in0.0 mm 0.00 in0.0 mm 0.00 in0.0 mm
04:16 AM 69.5°F20.8°C 62.7°F17.1°C 79% 7.0 mph N11.3 kmh N 10.0 mph16.1 kmh 29.94 in1013.9 mb 0.00 in0.0 mm 0.00 in0.0 mm 0.00 in0.0 mm
04:15 AM 69.5°F20.8°C 62.7°F17.1°C 79% 6.0 mph N9.7 kmh N 11.0 mph17.7 kmh 29.94 in1013.9 mb 0.00 in0.0 mm 0.00 in0.0 mm 0.00 in0.0 mm
04:14 AM 69.5°F20.8°C 62.7°F17.1°C 79% 7.0 mph N11.3 kmh N 11.0 mph17.7 kmh 29.94 in1013.9 mb 0.00 in0.0 mm 0.00 in0.0 mm 0.00 in0.0 mm
04:13 AM 69.5°F20.8°C 62.7°F17.1°C 79% 3.0 mph N4.8 kmh N 8.0 mph12.9 kmh 29.94 in1013.9 mb 0.00 in0.0 mm 0.00 in0.0 mm 0.00 in0.0 mm
04:12 AM 69.5°F20.8°C 62.7°F17.1°C 79% 4.0 mph N6.4 kmh N 8.0 mph12.9 kmh 29.94 in1013.9 mb 0.00 in0.0 mm 0.00 in0.0 mm 0.00 in0.0 mm
04:11 AM 69.5°F20.8°C 62.7°F17.1°C 79% 2.0 mph N3.2 kmh N 9.0 mph14.5 kmh 29.94 in1013.9 mb 0.00 in0.0 mm 0.00 in0.0 mm 0.00 in0.0 mm
04:10 AM 69.5°F20.8°C 62.7°F17.1°C 79% 6.0 mph N9.7 kmh N 10.0 mph16.1 kmh 29.94 in1013.9 mb 0.00 in0.0 mm 0.00 in0.0 mm 0.00 in0.0 mm
04:09 AM 69.5°F20.8°C 62.7°F17.1°C 79% 6.0 mph N9.7 kmh N 9.0 mph14.5 kmh 29.94 in1013.9 mb 0.00 in0.0 mm 0.00 in0.0 mm 0.00 in0.0 mm
04:08 AM 69.6°F20.9°C 62.8°F17.1°C 79% 4.0 mph N6.4 kmh N 7.0 mph11.3 kmh 29.94 in1013.9 mb 0.00 in0.0 mm 0.00 in0.0 mm 0.00 in0.0 mm
04:07 AM 69.6°F20.9°C 62.8°F17.1°C 79% 3.0 mph NNE4.8 kmh NNE 8.0 mph12.9 kmh 29.94 in1013.9 mb 0.00 in0.0 mm 0.00 in0.0 mm 0.00 in0.0 mm
04:06 AM 69.6°F20.9°C 62.8°F17.1°C 79% 6.0 mph N9.7 kmh N 11.0 mph17.7 kmh 29.94 in1013.9 mb 0.00 in0.0 mm 0.00 in0.0 mm 0.00 in0.0 mm
04:05 AM 69.6°F20.9°C 62.8°F17.1°C 79% 7.0 mph N11.3 kmh N 11.0 mph17.7 kmh 29.94 in1013.9 mb 0.00 in0.0 mm 0.00 in0.0 mm 0.00 in0.0 mm
04:04 AM 69.6°F20.9°C 63.0°F17.2°C 80% 6.0 mph N9.7 kmh N 9.0 mph14.5 kmh 29.94 in1013.9 mb 0.00 in0.0 mm 0.00 in0.0 mm 0.00 in0.0 mm
04:03 AM 69.6°F20.9°C 63.1°F17.3°C 80% 4.0 mph N6.4 kmh N 9.0 mph14.5 kmh 29.94 in1013.9 mb 0.00 in0.0 mm 0.00 in0.0 mm 0.00 in0.0 mm
04:02 AM 69.6°F20.9°C 63.1°F17.3°C 80% 3.0 mph N4.8 kmh N 5.0 mph8.0 kmh 29.94 in1013.9 mb 0.00 in0.0 mm 0.00 in0.0 mm 0.00 in0.0 mm
04:01 AM 69.6°F20.9°C 63.1°F17.3°C 80% 2.0 mph N3.2 kmh N 8.0 mph12.9 kmh 29.94 in1013.9 mb 0.00 in0.0 mm 0.00 in0.0 mm 0.00 in0.0 mm
04:00 AM 69.6°F20.9°C 63.2°F17.3°C 80% 5.0 mph N8.0 kmh N 8.0 mph12.9 kmh 29.94 in1013.9 mb 0.00 in0.0 mm 0.00 in0.0 mm 0.00 in0.0 mm
03:59 AM 69.7°F20.9°C 63.2°F17.3°C 80% 3.0 mph N4.8 kmh N 6.0 mph9.7 kmh 29.94 in1013.9 mb 0.00 in0.0 mm 0.00 in0.0 mm 0.00 in0.0 mm
03:58 AM 69.7°F20.9°C 63.2°F17.3°C 80% 4.0 mph N6.4 kmh N 6.0 mph9.7 kmh 29.94 in1013.9 mb 0.00 in0.0 mm 0.00 in0.0 mm 0.00 in0.0 mm
03:57 AM 69.7°F20.9°C 63.2°F17.3°C 80% 5.0 mph N8.0 kmh N 7.0 mph11.3 kmh 29.94 in1013.9 mb 0.00 in0.0 mm 0.00 in0.0 mm 0.00 in0.0 mm
03:56 AM 69.7°F20.9°C 63.2°F17.3°C 80% 4.0 mph N6.4 kmh N 7.0 mph11.3 kmh 29.94 in1013.9 mb 0.00 in0.0 mm 0.00 in0.0 mm 0.00 in0.0 mm
03:55 AM 69.7°F20.9°C 63.2°F17.3°C 80% 4.0 mph N6.4 kmh N 7.0 mph11.3 kmh 29.94 in1013.9 mb 0.00 in0.0 mm 0.00 in0.0 mm 0.00 in0.0 mm
03:54 AM 69.6°F20.9°C 63.1°F17.3°C 80% 4.0 mph N6.4 kmh N 8.0 mph12.9 kmh 29.94 in1013.9 mb 0.00 in0.0 mm 0.00 in0.0 mm 0.00 in0.0 mm
03:53 AM 69.6°F20.9°C 63.1°F17.3°C 80% 6.0 mph N9.7 kmh N 8.0 mph12.9 kmh 29.94 in1013.9 mb 0.00 in0.0 mm 0.00 in0.0 mm 0.00 in0.0 mm
03:52 AM 69.6°F20.9°C 63.1°F17.3°C 80% 5.0 mph N8.0 kmh N 7.0 mph11.3 kmh 29.94 in1013.9 mb 0.00 in0.0 mm 0.00 in0.0 mm 0.00 in0.0 mm
03:51 AM 69.6°F20.9°C 63.1°F17.3°C 80% 5.0 mph N8.0 kmh N 7.0 mph11.3 kmh 29.94 in1013.9 mb 0.00 in0.0 mm 0.00 in0.0 mm 0.00 in0.0 mm
03:50 AM 69.6°F20.9°C 63.2°F17.3°C 80% 5.0 mph N8.0 kmh N 7.0 mph11.3 kmh 29.94 in1013.9 mb 0.00 in0.0 mm 0.00 in0.0 mm 0.00 in0.0 mm
03:49 AM 69.6°F20.9°C 63.4°F17.4°C 81% 4.0 mph NNW6.4 kmh NNW 8.0 mph12.9 kmh 29.94 in1013.9 mb 0.00 in0.0 mm 0.00 in0.0 mm 0.00 in0.0 mm
03:48 AM 69.6°F20.9°C 63.3°F17.4°C 80% 6.0 mph NNW9.7 kmh NNW 8.0 mph12.9 kmh 29.94 in1013.9 mb 0.00 in0.0 mm 0.00 in0.0 mm 0.00 in0.0 mm
03:47 AM 69.6°F20.9°C 63.5°F17.5°C 81% 2.0 mph N3.2 kmh N 6.0 mph9.7 kmh 29.94 in1013.9 mb 0.00 in0.0 mm 0.00 in0.0 mm 0.00 in0.0 mm
03:46 AM 69.7°F20.9°C 63.6°F17.6°C 81% 4.0 mph NNW6.4 kmh NNW 6.0 mph9.7 kmh 29.94 in1013.9 mb 0.00 in0.0 mm 0.00 in0.0 mm 0.00 in0.0 mm
03:45 AM 69.7°F20.9°C 63.6°F17.6°C 81% 3.0 mph NNW4.8 kmh NNW 5.0 mph8.0 kmh 29.94 in1013.9 mb 0.00 in0.0 mm 0.00 in0.0 mm 0.00 in0.0 mm
03:44 AM 69.7°F20.9°C 63.5°F17.5°C 81% 2.0 mph N3.2 kmh N 5.0 mph8.0 kmh 29.94 in1013.9 mb 0.00 in0.0 mm 0.00 in0.0 mm 0.00 in0.0 mm
03:43 AM 69.7°F20.9°C 63.2°F17.3°C 80% 3.0 mph NNW4.8 kmh NNW 5.0 mph8.0 kmh 29.94 in1013.9 mb 0.00 in0.0 mm 0.00 in0.0 mm 0.00 in0.0 mm
03:42 AM 69.7°F20.9°C 63.2°F17.3°C 80% 4.0 mph N6.4 kmh N 5.0 mph8.0 kmh 29.94 in1013.9 mb 0.00 in0.0 mm 0.00 in0.0 mm 0.00 in0.0 mm
03:41 AM 69.7°F20.9°C 63.2°F17.3°C 80% 3.0 mph N4.8 kmh N 6.0 mph9.7 kmh 29.94 in1013.9 mb 0.00 in0.0 mm 0.00 in0.0 mm 0.00 in0.0 mm
03:40 AM 69.7°F20.9°C 63.2°F17.3°C 80% 5.0 mph N8.0 kmh N 6.0 mph9.7 kmh 29.94 in1013.9 mb 0.00 in0.0 mm 0.00 in0.0 mm 0.00 in0.0 mm
03:39 AM 69.7°F20.9°C 63.3°F17.4°C 80% 4.0 mph N6.4 kmh N 6.0 mph9.7 kmh 29.94 in1013.9 mb 0.00 in0.0 mm 0.00 in0.0 mm 0.00 in0.0 mm
03:38 AM 69.7°F20.9°C 63.3°F17.4°C 80% 3.0 mph N4.8 kmh N 6.0 mph9.7 kmh 29.94 in1013.9 mb 0.00 in0.0 mm 0.00 in0.0 mm 0.00 in0.0 mm
03:37 AM 69.8°F21.0°C 63.3°F17.4°C 80% 2.0 mph N3.2 kmh N 5.0 mph8.0 kmh 29.94 in1013.9 mb 0.00 in0.0 mm 0.00 in0.0 mm 0.00 in0.0 mm
03:36 AM 69.8°F21.0°C 63.3°F17.4°C 80% 4.0 mph N6.4 kmh N 6.0 mph9.7 kmh 29.94 in1013.9 mb 0.00 in0.0 mm 0.00 in0.0 mm 0.00 in0.0 mm
03:35 AM 69.8°F21.0°C 63.3°F17.4°C 80% 4.0 mph N6.4 kmh N 6.0 mph9.7 kmh 29.94 in1013.9 mb 0.00 in0.0 mm 0.00 in0.0 mm 0.00 in0.0 mm
03:34 AM 69.8°F21.0°C 63.3°F17.4°C 80% 4.0 mph N6.4 kmh N 6.0 mph9.7 kmh 29.94 in1013.9 mb 0.00 in0.0 mm 0.00 in0.0 mm 0.00 in0.0 mm
03:33 AM 69.8°F21.0°C 63.3°F17.4°C 80% 4.0 mph N6.4 kmh N 6.0 mph9.7 kmh 29.94 in1013.9 mb 0.00 in0.0 mm 0.00 in0.0 mm 0.00 in0.0 mm
03:32 AM 69.8°F21.0°C 63.3°F17.4°C 80% 3.0 mph N4.8 kmh N 6.0 mph9.7 kmh 29.94 in1013.9 mb 0.00 in0.0 mm 0.00 in0.0 mm 0.00 in0.0 mm
03:31 AM 69.8°F21.0°C 63.3°F17.4°C 80% 3.0 mph N4.8 kmh N 5.0 mph8.0 kmh 29.94 in1013.9 mb 0.00 in0.0 mm 0.00 in0.0 mm 0.00 in0.0 mm
03:30 AM 69.8°F21.0°C 63.3°F17.4°C 80% 4.0 mph N6.4 kmh N 5.0 mph8.0 kmh 29.94 in1013.9 mb 0.00 in0.0 mm 0.00 in0.0 mm 0.00 in0.0 mm
03:29 AM 69.8°F21.0°C 63.3°F17.4°C 80% 4.0 mph N6.4 kmh N 5.0 mph8.0 kmh 29.94 in1013.9 mb 0.00 in0.0 mm 0.00 in0.0 mm 0.00 in0.0 mm
03:28 AM 69.8°F21.0°C 63.3°F17.4°C 80% 4.0 mph N6.4 kmh N 6.0 mph9.7 kmh 29.94 in1013.9 mb 0.00 in0.0 mm 0.00 in0.0 mm 0.00 in0.0 mm
03:27 AM 69.8°F21.0°C 63.3°F17.4°C 80% 5.0 mph N8.0 kmh N 8.0 mph12.9 kmh 29.94 in1013.9 mb 0.00 in0.0 mm 0.00 in0.0 mm 0.00 in0.0 mm
03:26 AM 69.8°F21.0°C 63.3°F17.4°C 80% 4.0 mph N6.4 kmh N 8.0 mph12.9 kmh 29.94 in1013.9 mb 0.00 in0.0 mm 0.00 in0.0 mm 0.00 in0.0 mm
03:25 AM 69.8°F21.0°C 63.3°F17.4°C 80% 5.0 mph N8.0 kmh N 8.0 mph12.9 kmh 29.94 in1013.9 mb 0.00 in0.0 mm 0.00 in0.0 mm 0.00 in0.0 mm
03:24 AM 69.7°F20.9°C 63.2°F17.3°C 80% 5.0 mph N8.0 kmh N 9.0 mph14.5 kmh 29.94 in1013.9 mb 0.00 in0.0 mm 0.00 in0.0 mm 0.00 in0.0 mm
03:23 AM 69.7°F20.9°C 63.2°F17.3°C 80% 6.0 mph N9.7 kmh N 9.0 mph14.5 kmh 29.94 in1013.9 mb 0.00 in0.0 mm 0.00 in0.0 mm 0.00 in0.0 mm
03:22 AM 69.7°F20.9°C 63.2°F17.3°C 80% 5.0 mph N8.0 kmh N 6.0 mph9.7 kmh 29.94 in1013.9 mb 0.00 in0.0 mm 0.00 in0.0 mm 0.00 in0.0 mm
03:21 AM 69.7°F20.9°C 63.2°F17.3°C 80% 4.0 mph N6.4 kmh N 7.0 mph11.3 kmh 29.94 in1013.9 mb 0.00 in0.0 mm 0.00 in0.0 mm 0.00 in0.0 mm
03:20 AM 69.7°F20.9°C 63.3°F17.4°C 80% 4.0 mph N6.4 kmh N 7.0 mph11.3 kmh 29.94 in1013.9 mb 0.00 in0.0 mm 0.00 in0.0 mm 0.00 in0.0 mm
03:19 AM 69.7°F20.9°C 63.2°F17.3°C 80% 4.0 mph N6.4 kmh N 8.0 mph12.9 kmh 29.94 in1013.9 mb 0.00 in0.0 mm 0.00 in0.0 mm 0.00 in0.0 mm
03:18 AM 69.7°F20.9°C 63.3°F17.4°C 80% 6.0 mph N9.7 kmh N 8.0 mph12.9 kmh 29.94 in1013.9 mb 0.00 in0.0 mm 0.00 in0.0 mm 0.00 in0.0 mm
03:17 AM 69.8°F21.0°C 63.3°F17.4°C 80% 5.0 mph N8.0 kmh N 8.0 mph12.9 kmh 29.94 in1013.9 mb 0.00 in0.0 mm 0.00 in0.0 mm 0.00 in0.0 mm
03:16 AM 69.8°F21.0°C 63.3°F17.4°C 80% 6.0 mph N9.7 kmh N 8.0 mph12.9 kmh 29.94 in1013.9 mb 0.00 in0.0 mm 0.00 in0.0 mm 0.00 in0.0 mm
03:15 AM 69.8°F21.0°C 63.3°F17.4°C 80% 5.0 mph N8.0 kmh N 8.0 mph12.9 kmh 29.94 in1013.9 mb 0.00 in0.0 mm 0.00 in0.0 mm 0.00 in0.0 mm
03:14 AM 69.8°F21.0°C 63.3°F17.4°C 80% 5.0 mph N8.0 kmh N 8.0 mph12.9 kmh 29.94 in1013.9 mb 0.00 in0.0 mm 0.00 in0.0 mm 0.00 in0.0 mm
03:13 AM 69.8°F21.0°C 63.3°F17.4°C 80% 4.0 mph N6.4 kmh N 6.0 mph9.7 kmh 29.94 in1013.9 mb 0.00 in0.0 mm 0.00 in0.0 mm 0.00 in0.0 mm
03:12 AM 69.8°F21.0°C 63.4°F17.4°C 80% 5.0 mph N8.0 kmh N 7.0 mph11.3 kmh 29.94 in1013.9 mb 0.00 in0.0 mm 0.00 in0.0 mm 0.00 in0.0 mm
03:11 AM 69.9°F21.1°C 63.4°F17.4°C 80% 3.0 mph N4.8 kmh N 7.0 mph11.3 kmh 29.94 in1013.9 mb 0.00 in0.0 mm 0.00 in0.0 mm 0.00 in0.0 mm
03:10 AM 69.9°F21.1°C 63.4°F17.4°C 80% 3.0 mph N4.8 kmh N 7.0 mph11.3 kmh 29.94 in1013.9 mb 0.00 in0.0 mm 0.00 in0.0 mm 0.00 in0.0 mm
03:09 AM 69.9°F21.1°C 63.4°F17.4°C 80% 5.0 mph N8.0 kmh N 8.0 mph12.9 kmh 29.94 in1013.9 mb 0.00 in0.0 mm 0.00 in0.0 mm 0.00 in0.0 mm
03:08 AM 69.9°F21.1°C 63.4°F17.4°C 80% 5.0 mph N8.0 kmh N 8.0 mph12.9 kmh 29.94 in1013.9 mb 0.00 in0.0 mm 0.00 in0.0 mm 0.00 in0.0 mm
03:07 AM 70.0°F21.1°C 63.5°F17.5°C 80% 4.0 mph N6.4 kmh N 8.0 mph12.9 kmh 29.94 in1013.9 mb 0.00 in0.0 mm 0.00 in0.0 mm 0.00 in0.0 mm
03:06 AM 70.0°F21.1°C 63.5°F17.5°C 80% 2.0 mph N3.2 kmh N 6.0 mph9.7 kmh 29.94 in1013.9 mb 0.00 in0.0 mm 0.00 in0.0 mm 0.00 in0.0 mm
03:05 AM 70.0°F21.1°C 63.5°F17.5°C 80% 4.0 mph N6.4 kmh N 9.0 mph14.5 kmh 29.94 in1013.9 mb 0.00 in0.0 mm 0.00 in0.0 mm 0.00 in0.0 mm
03:04 AM 70.0°F21.1°C 63.5°F17.5°C 80% 6.0 mph N9.7 kmh N 9.0 mph14.5 kmh 29.94 in1013.9 mb 0.00 in0.0 mm 0.00 in0.0 mm 0.00 in0.0 mm
03:03 AM 70.0°F21.1°C 63.5°F17.5°C 80% 4.0 mph N6.4 kmh N 9.0 mph14.5 kmh 29.94 in1013.9 mb 0.00 in0.0 mm 0.00 in0.0 mm 0.00 in0.0 mm
03:02 AM 70.0°F21.1°C 63.5°F17.5°C 80% 5.0 mph N8.0 kmh N 9.0 mph14.5 kmh 29.94 in1013.9 mb 0.00 in0.0 mm 0.00 in0.0 mm 0.00 in0.0 mm
03:01 AM 70.1°F21.2°C 63.6°F17.6°C 80% 4.0 mph N6.4 kmh N 8.0 mph12.9 kmh 29.94 in1013.9 mb 0.00 in0.0 mm 0.00 in0.0 mm 0.00 in0.0 mm
03:00 AM 70.1°F21.2°C 63.6°F17.6°C 80% 6.0 mph N9.7 kmh N 9.0 mph14.5 kmh 29.94 in1013.9 mb 0.00 in0.0 mm 0.00 in0.0 mm 0.00 in0.0 mm
02:59 AM 70.1°F21.2°C 63.6°F17.6°C 80% 5.0 mph N8.0 kmh N 9.0 mph14.5 kmh 29.94 in1013.9 mb 0.00 in0.0 mm 0.00 in0.0 mm 0.00 in0.0 mm
02:58 AM 70.1°F21.2°C 63.6°F17.6°C 80% 6.0 mph NNE9.7 kmh NNE 9.0 mph14.5 kmh 29.94 in1013.9 mb 0.00 in0.0 mm 0.00 in0.0 mm 0.00 in0.0 mm
02:57 AM 70.1°F21.2°C 63.6°F17.6°C 80% 6.0 mph N9.7 kmh N 8.0 mph12.9 kmh 29.94 in1013.9 mb 0.00 in0.0 mm 0.00 in0.0 mm 0.00 in0.0 mm
02:56 AM 70.2°F21.2°C 63.7°F17.6°C 80% 4.0 mph N6.4 kmh N 10.0 mph16.1 kmh 29.94 in1013.9 mb 0.00 in0.0 mm 0.00 in0.0 mm 0.00 in0.0 mm
02:55 AM 70.1°F21.2°C 63.7°F17.6°C 80% 5.0 mph N8.0 kmh N 10.0 mph16.1 kmh 29.94 in1013.9 mb 0.00 in0.0 mm 0.00 in0.0 mm 0.00 in0.0 mm
02:54 AM 70.2°F21.2°C 63.7°F17.6°C 80% 3.0 mph N4.8 kmh N 9.0 mph14.5 kmh 29.94 in1013.9 mb 0.00 in0.0 mm 0.00 in0.0 mm 0.00 in0.0 mm
02:53 AM 70.2°F21.2°C 63.7°F17.6°C 80% 5.0 mph N8.0 kmh N 9.0 mph14.5 kmh 29.94 in1013.9 mb 0.00 in0.0 mm 0.00 in0.0 mm 0.00 in0.0 mm
02:52 AM 70.2°F21.2°C 63.7°F17.6°C 80% 5.0 mph N8.0 kmh N 8.0 mph12.9 kmh 29.94 in1013.9 mb 0.00 in0.0 mm 0.00 in0.0 mm 0.00 in0.0 mm
02:51 AM 70.2°F21.2°C 63.7°F17.6°C 80% 6.0 mph N9.7 kmh N 9.0 mph14.5 kmh 29.94 in1013.9 mb 0.00 in0.0 mm 0.00 in0.0 mm 0.00 in0.0 mm
02:50 AM 70.2°F21.2°C 63.7°F17.6°C 80% 6.0 mph N9.7 kmh N 11.0 mph17.7 kmh 29.94 in1013.9 mb 0.00 in0.0 mm 0.00 in0.0 mm 0.00 in0.0 mm
02:49 AM 70.2°F21.2°C 63.7°F17.6°C 80% 6.0 mph N9.7 kmh N 11.0 mph17.7 kmh 29.94 in1013.9 mb 0.00 in0.0 mm 0.00 in0.0 mm 0.00 in0.0 mm
02:48 AM 70.2°F21.2°C 63.7°F17.6°C 80% 6.0 mph N9.7 kmh N 8.0 mph12.9 kmh 29.94 in1013.9 mb 0.00 in0.0 mm 0.00 in0.0 mm 0.00 in0.0 mm
02:47 AM 70.2°F21.2°C 63.7°F17.6°C 80% 4.0 mph N6.4 kmh N 8.0 mph12.9 kmh 29.94 in1013.9 mb 0.00 in0.0 mm 0.00 in0.0 mm 0.00 in0.0 mm
02:46 AM 70.2°F21.2°C 63.7°F17.6°C 80% 5.0 mph N8.0 kmh N 8.0 mph12.9 kmh 29.94 in1013.9 mb 0.00 in0.0 mm 0.00 in0.0 mm 0.00 in0.0 mm
02:45 AM 70.2°F21.2°C 63.8°F17.7°C 80% 6.0 mph N9.7 kmh N 8.0 mph12.9 kmh 29.94 in1013.9 mb 0.00 in0.0 mm 0.00 in0.0 mm 0.00 in0.0 mm
02:44 AM 70.3°F21.3°C 63.8°F17.7°C 80% 6.0 mph N9.7 kmh N 9.0 mph14.5 kmh 29.94 in1013.9 mb 0.00 in0.0 mm 0.00 in0.0 mm 0.00 in0.0 mm
02:43 AM 70.3°F21.3°C 63.8°F17.7°C 80% 6.0 mph N9.7 kmh N 9.0 mph14.5 kmh 29.94 in1013.9 mb 0.00 in0.0 mm 0.00 in0.0 mm 0.00 in0.0 mm
02:42 AM 70.3°F21.3°C 63.8°F17.7°C 80% 7.0 mph N11.3 kmh N 9.0 mph14.5 kmh 29.94 in1013.9 mb 0.00 in0.0 mm 0.00 in0.0 mm 0.00 in0.0 mm
02:41 AM 70.3°F21.3°C 63.8°F17.7°C 80% 5.0 mph N8.0 kmh N 8.0 mph12.9 kmh 29.94 in1013.9 mb 0.00 in0.0 mm 0.00 in0.0 mm 0.00 in0.0 mm
02:40 AM 70.3°F21.3°C 63.8°F17.7°C 80% 6.0 mph N9.7 kmh N 8.0 mph12.9 kmh 29.94 in1013.9 mb 0.00 in0.0 mm 0.00 in0.0 mm 0.00 in0.0 mm
02:39 AM 70.3°F21.3°C 63.8°F17.7°C 80% 6.0 mph N9.7 kmh N 8.0 mph12.9 kmh 29.94 in1013.9 mb 0.00 in0.0 mm 0.00 in0.0 mm 0.00 in0.0 mm
02:38 AM 70.3°F21.3°C 63.8°F17.7°C 80% 5.0 mph NNE8.0 kmh NNE 8.0 mph12.9 kmh 29.94 in1013.9 mb 0.00 in0.0 mm 0.00 in0.0 mm 0.00 in0.0 mm
02:37 AM 70.3°F21.3°C 63.8°F17.7°C 80% 5.0 mph N8.0 kmh N 9.0 mph14.5 kmh 29.94 in1013.9 mb 0.00 in0.0 mm 0.00 in0.0 mm 0.00 in0.0 mm
02:36 AM 70.3°F21.3°C 63.8°F17.7°C 80% 6.0 mph N9.7 kmh N 10.0 mph16.1 kmh 29.94 in1013.9 mb 0.00 in0.0 mm 0.00 in0.0 mm 0.00 in0.0 mm
02:35 AM 70.3°F21.3°C 63.8°F17.7°C 80% 6.0 mph N9.7 kmh N 10.0 mph16.1 kmh 29.94 in1013.9 mb 0.00 in0.0 mm 0.00 in0.0 mm 0.00 in0.0 mm
02:34 AM 70.3°F21.3°C 63.9°F17.7°C 80% 6.0 mph 9.7 kmh 9.0 mph14.5 kmh 29.94 in1013.9 mb 0.00 in0.0 mm 0.00 in0.0 mm 0.00 in0.0 mm
02:33 AM 70.3°F21.3°C 64.2°F17.9°C 81% 6.0 mph N9.7 kmh N 9.0 mph14.5 kmh 29.94 in1013.9 mb 0.00 in0.0 mm 0.00 in0.0 mm 0.00 in0.0 mm
02:32 AM 70.4°F21.3°C 64.3°F17.9°C 81% 4.0 mph N6.4 kmh N 8.0 mph12.9 kmh 29.94 in1013.9 mb 0.00 in0.0 mm 0.00 in0.0 mm 0.00 in0.0 mm
02:31 AM 70.4°F21.3°C 64.3°F17.9°C 81% 5.0 mph NNE8.0 kmh NNE 8.0 mph12.9 kmh 29.93 in1013.5 mb 0.00 in0.0 mm 0.00 in0.0 mm 0.00 in0.0 mm
02:30 AM 70.4°F21.3°C 64.3°F17.9°C 81% 4.0 mph N6.4 kmh N 7.0 mph11.3 kmh 29.94 in1013.9 mb 0.00 in0.0 mm 0.00 in0.0 mm 0.00 in0.0 mm
02:29 AM 70.4°F21.3°C 64.0°F17.8°C 80% 4.0 mph N6.4 kmh N 8.0 mph12.9 kmh 29.93 in1013.5 mb 0.00 in0.0 mm 0.00 in0.0 mm 0.00 in0.0 mm
02:28 AM 70.4°F21.3°C 64.3°F17.9°C 81% 4.0 mph N6.4 kmh N 8.0 mph12.9 kmh 29.93 in1013.5 mb 0.00 in0.0 mm 0.00 in0.0 mm 0.00 in0.0 mm
02:27 AM 70.4°F21.3°C 64.3°F17.9°C 81% 5.0 mph 8.0 kmh 8.0 mph12.9 kmh 29.93 in1013.5 mb 0.00 in0.0 mm 0.00 in0.0 mm 0.00 in0.0 mm
02:26 AM 70.4°F21.3°C 64.3°F17.9°C 81% 5.0 mph N8.0 kmh N 9.0 mph14.5 kmh 29.93 in1013.5 mb 0.00 in0.0 mm 0.00 in0.0 mm 0.00 in0.0 mm
02:25 AM 70.4°F21.3°C 64.3°F17.9°C 81% 7.0 mph N11.3 kmh N 9.0 mph14.5 kmh 29.93 in1013.5 mb 0.00 in0.0 mm 0.00 in0.0 mm 0.00 in0.0 mm
02:24 AM 70.4°F21.3°C 64.3°F17.9°C 81% 7.0 mph N11.3 kmh N 9.0 mph14.5 kmh 29.93 in1013.5 mb 0.00 in0.0 mm 0.00 in0.0 mm 0.00 in0.0 mm
02:23 AM 70.4°F21.3°C 64.3°F17.9°C 81% 5.0 mph N8.0 kmh N 9.0 mph14.5 kmh 29.93 in1013.5 mb 0.00 in0.0 mm 0.00 in0.0 mm 0.00 in0.0 mm
02:22 AM 70.4°F21.3°C 64.3°F17.9°C 81% 4.0 mph NNE6.4 kmh NNE 6.0 mph9.7 kmh 29.94 in1013.9 mb 0.00 in0.0 mm 0.00 in0.0 mm 0.00 in0.0 mm
02:21 AM 70.4°F21.3°C 64.3°F17.9°C 81% 5.0 mph NNE8.0 kmh NNE 9.0 mph14.5 kmh 29.93 in1013.5 mb 0.00 in0.0 mm 0.00 in0.0 mm 0.00 in0.0 mm
02:20 AM 70.4°F21.3°C 64.3°F17.9°C 81% 5.0 mph N8.0 kmh N 10.0 mph16.1 kmh 29.93 in1013.5 mb 0.00 in0.0 mm 0.00 in0.0 mm 0.00 in0.0 mm
02:19 AM 70.3°F21.3°C 64.2°F17.9°C 81% 5.0 mph N8.0 kmh N 10.0 mph16.1 kmh 29.93 in1013.5 mb 0.00 in0.0 mm 0.00 in0.0 mm 0.00 in0.0 mm
02:18 AM 70.3°F21.3°C 64.2°F17.9°C 81% 5.0 mph N8.0 kmh N 9.0 mph14.5 kmh 29.93 in1013.5 mb 0.00 in0.0 mm 0.00 in0.0 mm 0.00 in0.0 mm
02:17 AM 70.3°F21.3°C 64.2°F17.9°C 81% 6.0 mph N9.7 kmh N 10.0 mph16.1 kmh 29.93 in1013.5 mb 0.00 in0.0 mm 0.00 in0.0 mm 0.00 in0.0 mm
02:16 AM 70.3°F21.3°C 64.2°F17.9°C 81% 6.0 mph N9.7 kmh N 11.0 mph17.7 kmh 29.93 in1013.5 mb 0.00 in0.0 mm 0.00 in0.0 mm 0.00 in0.0 mm
02:15 AM 70.2°F21.2°C 64.2°F17.9°C 81% 9.0 mph NNE14.5 kmh NNE 11.0 mph17.7 kmh 29.93 in1013.5 mb 0.00 in0.0 mm 0.00 in0.0 mm 0.00 in0.0 mm
02:14 AM 70.2°F21.2°C 64.4°F18.0°C 82% 7.0 mph NNE11.3 kmh NNE 11.0 mph17.7 kmh 29.93 in1013.5 mb 0.00 in0.0 mm 0.00 in0.0 mm 0.00 in0.0 mm
02:13 AM 70.2°F21.2°C 64.4°F18.0°C 82% 6.0 mph NNE9.7 kmh NNE 10.0 mph16.1 kmh 29.93 in1013.5 mb 0.00 in0.0 mm 0.00 in0.0 mm 0.00 in0.0 mm
02:12 AM 70.2°F21.2°C 64.4°F18.0°C 82% 8.0 mph NNE12.9 kmh NNE 10.0 mph16.1 kmh 29.93 in1013.5 mb 0.00 in0.0 mm 0.00 in0.0 mm 0.00 in0.0 mm
02:11 AM 70.2°F21.2°C 64.4°F18.0°C 82% 8.0 mph NNE12.9 kmh NNE 11.0 mph17.7 kmh 29.93 in1013.5 mb 0.00 in0.0 mm 0.00 in0.0 mm 0.00 in0.0 mm
02:10 AM 70.2°F21.2°C 64.4°F18.0°C 82% 7.0 mph NNE11.3 kmh NNE 11.0 mph17.7 kmh 29.93 in1013.5 mb 0.00 in0.0 mm 0.00 in0.0 mm 0.00 in0.0 mm
02:09 AM 70.1°F21.2°C 64.4°F18.0°C 82% 6.0 mph NNE9.7 kmh NNE 11.0 mph17.7 kmh 29.93 in1013.5 mb 0.00 in0.0 mm 0.00 in0.0 mm 0.00 in0.0 mm
02:08 AM 70.1°F21.2°C 64.3°F17.9°C 82% 8.0 mph NE12.9 kmh NE 11.0 mph17.7 kmh 29.93 in1013.5 mb 0.00 in0.0 mm 0.00 in0.0 mm 0.00 in0.0 mm
02:07 AM 70.1°F21.2°C 64.3°F17.9°C 82% 5.0 mph NNE8.0 kmh NNE 9.0 mph14.5 kmh 29.93 in1013.5 mb 0.00 in0.0 mm 0.00 in0.0 mm 0.00 in0.0 mm
02:06 AM 70.1°F21.2°C 64.3°F17.9°C 82% 6.0 mph NNE9.7 kmh NNE 9.0 mph14.5 kmh 29.93 in1013.5 mb 0.00 in0.0 mm 0.00 in0.0 mm 0.00 in0.0 mm
02:05 AM 70.1°F21.2°C 64.3°F17.9°C 82% 5.0 mph NNE8.0 kmh NNE 9.0 mph14.5 kmh 29.93 in1013.5 mb 0.00 in0.0 mm 0.00 in0.0 mm 0.00 in0.0 mm
02:04 AM 70.1°F21.2°C 64.4°F18.0°C 82% 5.0 mph N8.0 kmh N 8.0 mph12.9 kmh 29.93 in1013.5 mb 0.00 in0.0 mm 0.00 in0.0 mm 0.00 in0.0 mm
02:03 AM 70.1°F21.2°C 64.7°F18.2°C 83% 4.0 mph N6.4 kmh N 6.0 mph9.7 kmh 29.93 in1013.5 mb 0.00 in0.0 mm 0.00 in0.0 mm 0.00 in0.0 mm
02:02 AM 70.1°F21.2°C 64.7°F18.2°C 83% 4.0 mph N6.4 kmh N 8.0 mph12.9 kmh 29.93 in1013.5 mb 0.00 in0.0 mm 0.00 in0.0 mm 0.00 in0.0 mm
02:01 AM 70.1°F21.2°C 64.7°F18.2°C 83% 5.0 mph N8.0 kmh N 8.0 mph12.9 kmh 29.93 in1013.5 mb 0.00 in0.0 mm 0.00 in0.0 mm 0.00 in0.0 mm
02:00 AM 70.1°F21.2°C 64.7°F18.2°C 83% 5.0 mph NNE8.0 kmh NNE 8.0 mph12.9 kmh 29.93 in1013.5 mb 0.00 in0.0 mm 0.00 in0.0 mm 0.00 in0.0 mm
01:59 AM 70.1°F21.2°C 64.7°F18.2°C 83% 6.0 mph NNE9.7 kmh NNE 9.0 mph14.5 kmh 29.93 in1013.5 mb 0.00 in0.0 mm 0.00 in0.0 mm 0.00 in0.0 mm
01:58 AM 70.1°F21.2°C 64.6°F18.1°C 83% 6.0 mph N9.7 kmh N 9.0 mph14.5 kmh 29.93 in1013.5 mb 0.00 in0.0 mm 0.00 in0.0 mm 0.00 in0.0 mm
01:57 AM 70.1°F21.2°C 64.7°F18.2°C 83% 2.0 mph N3.2 kmh N 7.0 mph11.3 kmh 29.93 in1013.5 mb 0.00 in0.0 mm 0.00 in0.0 mm 0.00 in0.0 mm
01:56 AM 70.1°F21.2°C 64.7°F18.2°C 83% 2.0 mph NNE3.2 kmh NNE 7.0 mph11.3 kmh 29.93 in1013.5 mb 0.00 in0.0 mm 0.00 in0.0 mm 0.00 in0.0 mm
01:55 AM 70.1°F21.2°C 64.7°F18.2°C 83% 3.0 mph N4.8 kmh N 7.0 mph11.3 kmh 29.93 in1013.5 mb 0.00 in0.0 mm 0.00 in0.0 mm 0.00 in0.0 mm
01:54 AM 70.1°F21.2°C 64.7°F18.2°C 83% 4.0 mph N6.4 kmh N 6.0 mph9.7 kmh 29.93 in1013.5 mb 0.00 in0.0 mm 0.00 in0.0 mm 0.00 in0.0 mm
01:53 AM 70.1°F21.2°C 64.7°F18.2°C 83% 4.0 mph 6.4 kmh 6.0 mph9.7 kmh 29.93 in1013.5 mb 0.00 in0.0 mm 0.00 in0.0 mm 0.00 in0.0 mm
01:52 AM 70.1°F21.2°C 64.7°F18.2°C 83% 4.0 mph N6.4 kmh N 6.0 mph9.7 kmh 29.93 in1013.5 mb 0.00 in0.0 mm 0.00 in0.0 mm 0.00 in0.0 mm
01:51 AM 70.1°F21.2°C 64.7°F18.2°C 83% 4.0 mph N6.4 kmh N 9.0 mph14.5 kmh 29.93 in1013.5 mb 0.00 in0.0 mm 0.00 in0.0 mm 0.00 in0.0 mm
01:50 AM 70.1°F21.2°C 64.7°F18.2°C 83% 6.0 mph N9.7 kmh N 9.0 mph14.5 kmh 29.93 in1013.5 mb 0.00 in0.0 mm 0.00 in0.0 mm 0.00 in0.0 mm
01:49 AM 70.1°F21.2°C 64.7°F18.2°C 83% 5.0 mph N8.0 kmh N 9.0 mph14.5 kmh 29.93 in1013.5 mb 0.00 in0.0 mm 0.00 in0.0 mm 0.00 in0.0 mm
01:48 AM 70.1°F21.2°C 64.7°F18.2°C 83% 6.0 mph N9.7 kmh N 9.0 mph14.5 kmh 29.93 in1013.5 mb 0.00 in0.0 mm 0.00 in0.0 mm 0.00 in0.0 mm
01:47 AM 70.1°F21.2°C 64.7°F18.2°C 83% 5.0 mph N8.0 kmh N 7.0 mph11.3 kmh 29.93 in1013.5 mb 0.00 in0.0 mm 0.00 in0.0 mm 0.00 in0.0 mm
01:46 AM 70.1°F21.2°C 64.7°F18.2°C 83% 5.0 mph N8.0 kmh N 7.0 mph11.3 kmh 29.93 in1013.5 mb 0.00 in0.0 mm 0.00 in0.0 mm 0.00 in0.0 mm
01:45 AM 70.1°F21.2°C 64.7°F18.2°C 83% 5.0 mph N8.0 kmh N 7.0 mph11.3 kmh 29.93 in1013.5 mb 0.00 in0.0 mm 0.00 in0.0 mm 0.00 in0.0 mm
01:44 AM 70.1°F21.2°C 64.7°F18.2°C 83% 3.0 mph N4.8 kmh N 8.0 mph12.9 kmh 29.93 in1013.5 mb 0.00 in0.0 mm 0.00 in0.0 mm 0.00 in0.0 mm
01:43 AM 70.2°F21.2°C 64.8°F18.2°C 83% 4.0 mph N6.4 kmh N 8.0 mph12.9 kmh 29.93 in1013.5 mb 0.00 in0.0 mm 0.00 in0.0 mm 0.00 in0.0 mm
01:42 AM 70.2°F21.2°C 64.8°F18.2°C 83% 2.0 mph N3.2 kmh N 5.0 mph8.0 kmh 29.93 in1013.5 mb 0.00 in0.0 mm 0.00 in0.0 mm 0.00 in0.0 mm
01:41 AM 70.3°F21.3°C 64.8°F18.2°C 83% 3.0 mph N4.8 kmh N 5.0 mph8.0 kmh 29.93 in1013.5 mb 0.00 in0.0 mm 0.00 in0.0 mm 0.00 in0.0 mm
01:40 AM 70.3°F21.3°C 64.9°F18.3°C 83% 3.0 mph N4.8 kmh N 5.0 mph8.0 kmh 29.93 in1013.5 mb 0.00 in0.0 mm 0.00 in0.0 mm 0.00 in0.0 mm
01:39 AM 70.3°F21.3°C 64.9°F18.3°C 83% 3.0 mph N4.8 kmh N 8.0 mph12.9 kmh 29.93 in1013.5 mb 0.00 in0.0 mm 0.00 in0.0 mm 0.00 in0.0 mm
01:38 AM 70.4°F21.3°C 65.0°F18.3°C 83% 3.0 mph N4.8 kmh N 8.0 mph12.9 kmh 29.93 in1013.5 mb 0.00 in0.0 mm 0.00 in0.0 mm 0.00 in0.0 mm
01:37 AM 70.4°F21.3°C 64.7°F18.2°C 82% 1.0 mph NW1.6 kmh NW 4.0 mph6.4 kmh 29.93 in1013.5 mb 0.00 in0.0 mm 0.00 in0.0 mm 0.00 in0.0 mm
01:36 AM 70.4°F21.3°C 64.6°F18.1°C 82% 2.0 mph N3.2 kmh N 5.0 mph8.0 kmh 29.93 in1013.5 mb 0.00 in0.0 mm 0.00 in0.0 mm 0.00 in0.0 mm
01:35 AM 70.4°F21.3°C 64.6°F18.1°C 82% 2.0 mph N3.2 kmh N 6.0 mph9.7 kmh 29.93 in1013.5 mb 0.00 in0.0 mm 0.00 in0.0 mm 0.00 in0.0 mm
01:34 AM 70.4°F21.3°C 64.7°F18.2°C 82% 4.0 mph N6.4 kmh N 6.0 mph9.7 kmh 29.93 in1013.5 mb 0.00 in0.0 mm 0.00 in0.0 mm 0.00 in0.0 mm
01:33 AM 70.5°F21.4°C 64.7°F18.2°C 82% 4.0 mph N6.4 kmh N 8.0 mph12.9 kmh 29.93 in1013.5 mb 0.00 in0.0 mm 0.00 in0.0 mm 0.00 in0.0 mm
01:32 AM 70.5°F21.4°C 64.7°F18.2°C 82% 5.0 mph NNW8.0 kmh NNW 8.0 mph12.9 kmh 29.93 in1013.5 mb 0.00 in0.0 mm 0.00 in0.0 mm 0.00 in0.0 mm
01:31 AM 70.5°F21.4°C 64.7°F18.2°C 82% 4.0 mph N6.4 kmh N 9.0 mph14.5 kmh 29.93 in1013.5 mb 0.00 in0.0 mm 0.00 in0.0 mm 0.00 in0.0 mm
01:30 AM 70.6°F21.4°C 64.5°F18.1°C 81% 6.0 mph N9.7 kmh N 10.0 mph16.1 kmh 29.93 in1013.5 mb 0.00 in0.0 mm 0.00 in0.0 mm 0.00 in0.0 mm
01:29 AM 70.6°F21.4°C 64.5°F18.1°C 81% 8.0 mph N12.9 kmh N 10.0 mph16.1 kmh 29.93 in1013.5 mb 0.00 in0.0 mm 0.00 in0.0 mm 0.00 in0.0 mm
01:28 AM 70.6°F21.4°C 64.5°F18.1°C 81% 6.0 mph N9.7 kmh N 11.0 mph17.7 kmh 29.93 in1013.5 mb 0.00 in0.0 mm 0.00 in0.0 mm 0.00 in0.0 mm
01:27 AM 70.6°F21.4°C 64.5°F18.1°C 81% 8.0 mph N12.9 kmh N 12.0 mph19.3 kmh 29.93 in1013.5 mb 0.00 in0.0 mm 0.00 in0.0 mm 0.00 in0.0 mm
01:26 AM 70.6°F21.4°C 64.5°F18.1°C 81% 8.0 mph N12.9 kmh N 12.0 mph19.3 kmh 29.93 in1013.5 mb 0.00 in0.0 mm 0.00 in0.0 mm 0.00 in0.0 mm
01:25 AM 70.6°F21.4°C 64.5°F18.1°C 81% 8.0 mph NNE12.9 kmh NNE 11.0 mph17.7 kmh 29.93 in1013.5 mb 0.00 in0.0 mm 0.00 in0.0 mm 0.00 in0.0 mm
01:24 AM 70.6°F21.4°C 64.8°F18.2°C 82% 8.0 mph N12.9 kmh N 11.0 mph17.7 kmh 29.93 in1013.5 mb 0.00 in0.0 mm 0.00 in0.0 mm 0.00 in0.0 mm
01:23 AM 70.6°F21.4°C 64.6°F18.1°C 81% 7.0 mph N11.3 kmh N 10.0 mph16.1 kmh 29.93 in1013.5 mb 0.00 in0.0 mm 0.00 in0.0 mm 0.00 in0.0 mm
01:22 AM 70.6°F21.4°C 64.8°F18.2°C 82% 7.0 mph N11.3 kmh N 10.0 mph16.1 kmh 29.94 in1013.9 mb 0.00 in0.0 mm 0.00 in0.0 mm 0.00 in0.0 mm
01:21 AM 70.6°F21.4°C 64.8°F18.2°C 82% 8.0 mph N12.9 kmh N 10.0 mph16.1 kmh 29.94 in1013.9 mb 0.00 in0.0 mm 0.00 in0.0 mm 0.00 in0.0 mm
01:20 AM 70.6°F21.4°C 64.8°F18.2°C 82% 5.0 mph NNE8.0 kmh NNE 10.0 mph16.1 kmh 29.94 in1013.9 mb 0.00 in0.0 mm 0.00 in0.0 mm 0.00 in0.0 mm
01:19 AM 70.6°F21.4°C 64.8°F18.2°C 82% 6.0 mph NNE9.7 kmh NNE 9.0 mph14.5 kmh 29.94 in1013.9 mb 0.00 in0.0 mm 0.00 in0.0 mm 0.00 in0.0 mm
01:18 AM 70.7°F21.5°C 64.9°F18.3°C 82% 6.0 mph N9.7 kmh N 12.0 mph19.3 kmh 29.93 in1013.5 mb 0.00 in0.0 mm 0.00 in0.0 mm 0.00 in0.0 mm
01:17 AM 70.7°F21.5°C 64.8°F18.2°C 82% 7.0 mph NNE11.3 kmh NNE 12.0 mph19.3 kmh 29.94 in1013.9 mb 0.00 in0.0 mm 0.00 in0.0 mm 0.00 in0.0 mm
01:16 AM 70.7°F21.5°C 64.6°F18.1°C 81% 4.0 mph NNE6.4 kmh NNE 10.0 mph16.1 kmh 29.93 in1013.5 mb 0.00 in0.0 mm 0.00 in0.0 mm 0.00 in0.0 mm
01:15 AM 70.8°F21.6°C 64.7°F18.2°C 81% 8.0 mph N12.9 kmh N 10.0 mph16.1 kmh 29.94 in1013.9 mb 0.00 in0.0 mm 0.00 in0.0 mm 0.00 in0.0 mm
01:14 AM 70.8°F21.6°C 64.7°F18.2°C 81% 5.0 mph N8.0 kmh N 8.0 mph12.9 kmh 29.94 in1013.9 mb 0.00 in0.0 mm 0.00 in0.0 mm 0.00 in0.0 mm
01:13 AM 70.8°F21.6°C 64.7°F18.2°C 81% 4.0 mph N6.4 kmh N 8.0 mph12.9 kmh 29.94 in1013.9 mb 0.00 in0.0 mm 0.00 in0.0 mm 0.00 in0.0 mm
01:12 AM 70.8°F21.6°C 64.7°F18.2°C 81% 6.0 mph N9.7 kmh N 10.0 mph16.1 kmh 29.94 in1013.9 mb 0.00 in0.0 mm 0.00 in0.0 mm 0.00 in0.0 mm
01:11 AM 70.8°F21.6°C 64.7°F18.2°C 81% 7.0 mph N11.3 kmh N 10.0 mph16.1 kmh 29.94 in1013.9 mb 0.00 in0.0 mm 0.00 in0.0 mm 0.00 in0.0 mm
01:10 AM 70.8°F21.6°C 64.7°F18.2°C 81% 4.0 mph N6.4 kmh N 10.0 mph16.1 kmh 29.94 in1013.9 mb 0.00 in0.0 mm 0.00 in0.0 mm 0.00 in0.0 mm
01:09 AM 70.8°F21.6°C 64.7°F18.2°C 81% 7.0 mph N11.3 kmh N 10.0 mph16.1 kmh 29.94 in1013.9 mb 0.00 in0.0 mm 0.00 in0.0 mm 0.00 in0.0 mm
01:08 AM 70.8°F21.6°C 64.7°F18.2°C 81% 7.0 mph N11.3 kmh N 10.0 mph16.1 kmh 29.94 in1013.9 mb 0.00 in0.0 mm 0.00 in0.0 mm 0.00 in0.0 mm
01:07 AM 70.8°F21.6°C 64.7°F18.2°C 81% 5.0 mph N8.0 kmh N 10.0 mph16.1 kmh 29.94 in1013.9 mb 0.00 in0.0 mm 0.00 in0.0 mm 0.00 in0.0 mm
01:06 AM 70.8°F21.6°C 64.7°F18.2°C 81% 7.0 mph N11.3 kmh N 11.0 mph17.7 kmh 29.94 in1013.9 mb 0.00 in0.0 mm 0.00 in0.0 mm 0.00 in0.0 mm
01:05 AM 70.8°F21.6°C 64.7°F18.2°C 81% 7.0 mph N11.3 kmh N 11.0 mph17.7 kmh 29.94 in1013.9 mb 0.00 in0.0 mm 0.00 in0.0 mm 0.00 in0.0 mm
01:04 AM 70.8°F21.6°C 64.8°F18.2°C 82% 8.0 mph 12.9 kmh 13.0 mph20.9 kmh 29.94 in1013.9 mb 0.00 in0.0 mm 0.00 in0.0 mm 0.00 in0.0 mm
01:03 AM 70.7°F21.5°C 64.9°F18.3°C 82% 7.0 mph N11.3 kmh N 13.0 mph20.9 kmh 29.94 in1013.9 mb 0.00 in0.0 mm 0.00 in0.0 mm 0.00 in0.0 mm
01:02 AM 70.7°F21.5°C 64.9°F18.3°C 82% 7.0 mph N11.3 kmh N 11.0 mph17.7 kmh 29.94 in1013.9 mb 0.00 in0.0 mm 0.00 in0.0 mm 0.00 in0.0 mm
01:01 AM 70.6°F21.4°C 64.8°F18.2°C 82% 7.0 mph N11.3 kmh N 10.0 mph16.1 kmh 29.94 in1013.9 mb 0.00 in0.0 mm 0.00 in0.0 mm 0.00 in0.0 mm
01:00 AM 70.6°F21.4°C 64.8°F18.2°C 82% 4.0 mph N6.4 kmh N 6.0 mph9.7 kmh 29.94 in1013.9 mb 0.00 in0.0 mm 0.00 in0.0 mm 0.00 in0.0 mm
12:59 AM 70.6°F21.4°C 64.8°F18.2°C 82% 3.0 mph N4.8 kmh N 6.0 mph9.7 kmh 29.94 in1013.9 mb 0.00 in0.0 mm 0.00 in0.0 mm 0.00 in0.0 mm
12:58 AM 70.5°F21.4°C 64.8°F18.2°C 82% 3.0 mph N4.8 kmh N 10.0 mph16.1 kmh 29.94 in1013.9 mb 0.00 in0.0 mm 0.00 in0.0 mm 0.00 in0.0 mm
12:57 AM 70.5°F21.4°C 65.0°F18.3°C 83% 8.0 mph N12.9 kmh N 12.0 mph19.3 kmh 29.94 in1013.9 mb 0.00 in0.0 mm 0.00 in0.0 mm 0.00 in0.0 mm
12:56 AM 70.5°F21.4°C 65.1°F18.4°C 83% 6.0 mph N9.7 kmh N 12.0 mph19.3 kmh 29.94 in1013.9 mb 0.00 in0.0 mm 0.00 in0.0 mm 0.00 in0.0 mm
12:55 AM 70.4°F21.3°C 65.0°F18.3°C 83% 5.0 mph N8.0 kmh N 11.0 mph17.7 kmh 29.94 in1013.9 mb 0.00 in0.0 mm 0.00 in0.0 mm 0.00 in0.0 mm
12:54 AM 70.4°F21.3°C 65.0°F18.3°C 83% 5.0 mph NNW8.0 kmh NNW 11.0 mph17.7 kmh 29.94 in1013.9 mb 0.00 in0.0 mm 0.00 in0.0 mm 0.00 in0.0 mm
12:53 AM 70.4°F21.3°C 65.1°F18.4°C 83% 4.0 mph NNW6.4 kmh NNW 10.0 mph16.1 kmh 29.94 in1013.9 mb 0.00 in0.0 mm 0.00 in0.0 mm 0.00 in0.0 mm
12:52 AM 70.3°F21.3°C 65.3°F18.5°C 84% 6.0 mph NNW9.7 kmh NNW 10.0 mph16.1 kmh 29.94 in1013.9 mb 0.00 in0.0 mm 0.00 in0.0 mm 0.00 in0.0 mm
12:51 AM 70.3°F21.3°C 65.2°F18.4°C 84% 6.0 mph N9.7 kmh N 10.0 mph16.1 kmh 29.94 in1013.9 mb 0.00 in0.0 mm 0.00 in0.0 mm 0.00 in0.0 mm
12:50 AM 70.3°F21.3°C 65.2°F18.4°C 84% 5.0 mph N8.0 kmh N 9.0 mph14.5 kmh 29.94 in1013.9 mb 0.00 in0.0 mm 0.00 in0.0 mm 0.00 in0.0 mm
12:49 AM 70.2°F21.2°C 65.1°F18.4°C 84% 2.0 mph NW3.2 kmh NW 6.0 mph9.7 kmh 29.94 in1013.9 mb 0.00 in0.0 mm 0.00 in0.0 mm 0.00 in0.0 mm
12:48 AM 70.2°F21.2°C 65.1°F18.4°C 84% 4.0 mph N6.4 kmh N 6.0 mph9.7 kmh 29.94 in1013.9 mb 0.00 in0.0 mm 0.00 in0.0 mm 0.00 in0.0 mm
12:47 AM 70.2°F21.2°C 65.1°F18.4°C 84% 3.0 mph NNW4.8 kmh NNW 8.0 mph12.9 kmh 29.94 in1013.9 mb 0.00 in0.0 mm 0.00 in0.0 mm 0.00 in0.0 mm
12:46 AM 70.2°F21.2°C 65.3°F18.5°C 85% 5.0 mph N8.0 kmh N 8.0 mph12.9 kmh 29.94 in1013.9 mb 0.00 in0.0 mm 0.00 in0.0 mm 0.00 in0.0 mm
12:45 AM 70.3°F21.3°C 65.6°F18.7°C 85% 6.0 mph NNW9.7 kmh NNW 8.0 mph12.9 kmh 29.94 in1013.9 mb 0.00 in0.0 mm 0.00 in0.0 mm 0.00 in0.0 mm
12:44 AM 70.3°F21.3°C 65.3°F18.5°C 84% 2.0 mph NNW3.2 kmh NNW 5.0 mph8.0 kmh 29.94 in1013.9 mb 0.00 in0.0 mm 0.00 in0.0 mm 0.00 in0.0 mm
12:43 AM 70.3°F21.3°C 65.3°F18.5°C 84% 3.0 mph NNW4.8 kmh NNW 5.0 mph8.0 kmh 29.94 in1013.9 mb 0.00 in0.0 mm 0.00 in0.0 mm 0.00 in0.0 mm
12:42 AM 70.3°F21.3°C 65.5°F18.6°C 85% 2.0 mph N3.2 kmh N 4.0 mph6.4 kmh 29.94 in1013.9 mb 0.00 in0.0 mm 0.00 in0.0 mm 0.00 in0.0 mm
12:41 AM 70.3°F21.3°C 65.2°F18.4°C 84% 2.0 mph NNW3.2 kmh NNW 6.0 mph9.7 kmh 29.94 in1013.9 mb 0.00 in0.0 mm 0.00 in0.0 mm 0.00 in0.0 mm
12:40 AM 70.3°F21.3°C 65.2°F18.4°C 84% 3.0 mph NNW4.8 kmh NNW 8.0 mph12.9 kmh 29.94 in1013.9 mb 0.00 in0.0 mm 0.00 in0.0 mm 0.00 in0.0 mm
12:39 AM 70.3°F21.3°C 65.2°F18.4°C 84% 4.0 mph N6.4 kmh N 8.0 mph12.9 kmh 29.93 in1013.5 mb 0.00 in0.0 mm 0.00 in0.0 mm 0.00 in0.0 mm
12:38 AM 70.3°F21.3°C 65.2°F18.4°C 84% 4.0 mph NNW6.4 kmh NNW 6.0 mph9.7 kmh 29.93 in1013.5 mb 0.00 in0.0 mm 0.00 in0.0 mm 0.00 in0.0 mm
12:37 AM 70.3°F21.3°C 65.2°F18.4°C 84% 4.0 mph N6.4 kmh N 5.0 mph8.0 kmh 29.93 in1013.5 mb 0.00 in0.0 mm 0.00 in0.0 mm 0.00 in0.0 mm
12:36 AM 70.3°F21.3°C 65.2°F18.4°C 84% 3.0 mph N4.8 kmh N 7.0 mph11.3 kmh 29.94 in1013.9 mb 0.00 in0.0 mm 0.00 in0.0 mm 0.00 in0.0 mm
12:35 AM 70.3°F21.3°C 65.2°F18.4°C 84% 4.0 mph N6.4 kmh N 7.0 mph11.3 kmh 29.93 in1013.5 mb 0.00 in0.0 mm 0.00 in0.0 mm 0.00 in0.0 mm
12:34 AM 70.3°F21.3°C 65.2°F18.4°C 84% 4.0 mph N6.4 kmh N 8.0 mph12.9 kmh 29.93 in1013.5 mb 0.00 in0.0 mm 0.00 in0.0 mm 0.00 in0.0 mm
12:33 AM 70.2°F21.2°C 65.1°F18.4°C 84% 5.0 mph N8.0 kmh N 8.0 mph12.9 kmh 29.93 in1013.5 mb 0.00 in0.0 mm 0.00 in0.0 mm 0.00 in0.0 mm
12:32 AM 70.2°F21.2°C 65.1°F18.4°C 84% 4.0 mph N6.4 kmh N 8.0 mph12.9 kmh 29.93 in1013.5 mb 0.00 in0.0 mm 0.00 in0.0 mm 0.00 in0.0 mm
12:31 AM 70.2°F21.2°C 65.1°F18.4°C 84% 5.0 mph N8.0 kmh N 8.0 mph12.9 kmh 29.94 in1013.9 mb 0.00 in0.0 mm 0.00 in0.0 mm 0.00 in0.0 mm
12:30 AM 70.3°F21.3°C 65.2°F18.4°C 84% 4.0 mph N6.4 kmh N 5.0 mph8.0 kmh 29.93 in1013.5 mb 0.00 in0.0 mm 0.00 in0.0 mm 0.00 in0.0 mm
12:29 AM 70.3°F21.3°C 65.2°F18.4°C 84% 3.0 mph N4.8 kmh N 6.0 mph9.7 kmh 29.93 in1013.5 mb 0.00 in0.0 mm 0.00 in0.0 mm 0.00 in0.0 mm
12:28 AM 70.3°F21.3°C 65.2°F18.4°C 84% 4.0 mph N6.4 kmh N 6.0 mph9.7 kmh 29.94 in1013.9 mb 0.00 in0.0 mm 0.00 in0.0 mm 0.00 in0.0 mm
12:27 AM 70.3°F21.3°C 65.5°F18.6°C 85% 4.0 mph N6.4 kmh N 6.0 mph9.7 kmh 29.94 in1013.9 mb 0.00 in0.0 mm 0.00 in0.0 mm 0.00 in0.0 mm
12:26 AM 70.4°F21.3°C 65.7°F18.7°C 85% 2.0 mph NNW3.2 kmh NNW 3.0 mph4.8 kmh 29.94 in1013.9 mb 0.00 in0.0 mm 0.00 in0.0 mm 0.00 in0.0 mm
12:25 AM 70.4°F21.3°C 65.7°F18.7°C 85% 1.0 mph NNW1.6 kmh NNW 3.0 mph4.8 kmh 29.94 in1013.9 mb 0.00 in0.0 mm 0.00 in0.0 mm 0.00 in0.0 mm
12:24 AM 70.4°F21.3°C 65.5°F18.6°C 85% 1.0 mph NNW1.6 kmh NNW 3.0 mph4.8 kmh 29.94 in1013.9 mb 0.00 in0.0 mm 0.00 in0.0 mm 0.00 in0.0 mm
12:23 AM 70.4°F21.3°C 65.3°F18.5°C 84% 2.0 mph NNW3.2 kmh NNW 4.0 mph6.4 kmh 29.94 in1013.9 mb 0.00 in0.0 mm 0.00 in0.0 mm 0.00 in0.0 mm
12:22 AM 70.4°F21.3°C 65.3°F18.5°C 84% 3.0 mph N4.8 kmh N 5.0 mph8.0 kmh 29.93 in1013.5 mb 0.00 in0.0 mm 0.00 in0.0 mm 0.00 in0.0 mm
12:21 AM 70.4°F21.3°C 65.3°F18.5°C 84% 2.0 mph N3.2 kmh N 5.0 mph8.0 kmh 29.94 in1013.9 mb 0.00 in0.0 mm 0.00 in0.0 mm 0.00 in0.0 mm
12:20 AM 70.4°F21.3°C 65.3°F18.5°C 84% 3.0 mph N4.8 kmh N 5.0 mph8.0 kmh 29.94 in1013.9 mb 0.00 in0.0 mm 0.00 in0.0 mm 0.00 in0.0 mm
12:19 AM 70.4°F21.3°C 65.3°F18.5°C 84% 1.0 mph N1.6 kmh N 3.0 mph4.8 kmh 29.94 in1013.9 mb 0.00 in0.0 mm 0.00 in0.0 mm 0.00 in0.0 mm
12:18 AM 70.4°F21.3°C 65.3°F18.5°C 84% 1.0 mph N1.6 kmh N 4.0 mph6.4 kmh 29.94 in1013.9 mb 0.00 in0.0 mm 0.00 in0.0 mm 0.00 in0.0 mm
12:17 AM 70.4°F21.3°C 65.3°F18.5°C 84% 2.0 mph N3.2 kmh N 4.0 mph6.4 kmh 29.94 in1013.9 mb 0.00 in0.0 mm 0.00 in0.0 mm 0.00 in0.0 mm
12:16 AM 70.4°F21.3°C 65.3°F18.5°C 84% 2.0 mph N3.2 kmh N 4.0 mph6.4 kmh 29.93 in1013.5 mb 0.00 in0.0 mm 0.00 in0.0 mm 0.00 in0.0 mm
12:15 AM 70.4°F21.3°C 65.3°F18.5°C 84% 3.0 mph N4.8 kmh N 7.0 mph11.3 kmh 29.93 in1013.5 mb 0.00 in0.0 mm 0.00 in0.0 mm 0.00 in0.0 mm
12:14 AM 70.4°F21.3°C 65.3°F18.5°C 84% 5.0 mph N8.0 kmh N 7.0 mph11.3 kmh 29.94 in1013.9 mb 0.00 in0.0 mm 0.00 in0.0 mm 0.00 in0.0 mm
12:13 AM 70.4°F21.3°C 65.3°F18.5°C 84% 4.0 mph N6.4 kmh N 9.0 mph14.5 kmh 29.93 in1013.5 mb 0.00 in0.0 mm 0.00 in0.0 mm 0.00 in0.0 mm
12:12 AM 70.3°F21.3°C 65.2°F18.4°C 84% 6.0 mph N9.7 kmh N 9.0 mph14.5 kmh 29.94 in1013.9 mb 0.00 in0.0 mm 0.00 in0.0 mm 0.00 in0.0 mm
12:11 AM 70.2°F21.2°C 65.2°F18.4°C 84% 6.0 mph N9.7 kmh N 10.0 mph16.1 kmh 29.94 in1013.9 mb 0.00 in0.0 mm 0.00 in0.0 mm 0.00 in0.0 mm
12:10 AM 70.2°F21.2°C 65.1°F18.4°C 84% 6.0 mph N9.7 kmh N 10.0 mph16.1 kmh 29.94 in1013.9 mb 0.00 in0.0 mm 0.00 in0.0 mm 0.00 in0.0 mm
12:09 AM 70.1°F21.2°C 65.0°F18.3°C 84% 5.0 mph N8.0 kmh N 8.0 mph12.9 kmh 29.94 in1013.9 mb 0.00 in0.0 mm 0.00 in0.0 mm 0.00 in0.0 mm
12:08 AM 70.0°F21.1°C 65.3°F18.5°C 85% 5.0 mph N8.0 kmh N 8.0 mph12.9 kmh 29.94 in1013.9 mb 0.00 in0.0 mm 0.00 in0.0 mm 0.00 in0.0 mm
12:07 AM 69.9°F21.1°C 65.2°F18.4°C 85% 7.0 mph NNE11.3 kmh NNE 8.0 mph12.9 kmh 29.94 in1013.9 mb 0.00 in0.0 mm 0.00 in0.0 mm 0.00 in0.0 mm
12:06 AM 69.9°F21.1°C 65.3°F18.5°C 85% 4.0 mph NNE6.4 kmh NNE 8.0 mph12.9 kmh 29.94 in1013.9 mb 0.00 in0.0 mm 0.00 in0.0 mm 0.00 in0.0 mm
12:05 AM 69.9°F21.1°C 65.5°F18.6°C 86% 4.0 mph NNE6.4 kmh NNE 8.0 mph12.9 kmh 29.94 in1013.9 mb 0.00 in0.0 mm 0.00 in0.0 mm 0.00 in0.0 mm
12:04 AM 69.8°F21.0°C 65.4°F18.6°C 86% 3.0 mph 4.8 kmh 4.0 mph6.4 kmh 29.94 in1013.9 mb 0.00 in0.0 mm 0.00 in0.0 mm 0.00 in0.0 mm
12:03 AM 69.8°F21.0°C 65.4°F18.6°C 86% 3.0 mph N4.8 kmh N 4.0 mph6.4 kmh 29.94 in1013.9 mb 0.00 in0.0 mm 0.00 in0.0 mm 0.00 in0.0 mm
12:02 AM 69.8°F21.0°C 65.4°F18.6°C 86% 3.0 mph N4.8 kmh N 4.0 mph6.4 kmh 29.94 in1013.9 mb 0.00 in0.0 mm 0.00 in0.0 mm 0.00 in0.0 mm
12:01 AM 69.7°F20.9°C 65.3°F18.5°C 86% 2.0 mph NNW3.2 kmh NNW 3.0 mph4.8 kmh 29.94 in1013.9 mb 0.00 in0.0 mm 0.00 in0.0 mm 0.00 in0.0 mm
12:00 AM 69.7°F20.9°C 65.4°F18.6°C 86% Calm Calm 3.0 mph4.8 kmh 29.94 in1013.9 mb 0.00 in0.0 mm 0.00 in0.0 mm 0.00 in0.0 mm